Moss Hill, Texas
Current Conditions -  °F | °C
As of 5:15 PM on Friday 24 Oct 2014 (Local Time) from K6R3 Reporting Station
Clear Clear  
Wind Chill: 77°   Ceiling: Unl
Heat Index: 79°   Visibility: 7mi
Dew Point: 60°   Wind: 3mph
Humidity: 56%   Direction: 20°NNE
Pressure: 30.1"   Gusts: NA
Location:  30.0821°N, 94.7401°W
Report Text: K6R3 242215Z AUTO 02003KT 7SM CLR 25/16 A3010 RMK AO2 T02500158
Loading
Personal Weather Stations






























Interactive Weather Map
Tropical Storm Tracking
New forecast layout! Learn more

10-Day Weather Forecast

Advertisements
Track Severe Weather on mobile